Abbott Park, IL

4:49 AM CDT on October 23, 2014 (GMT -0500)
Waukegan Regional | Change Station
CLOSE
Current Station
Airport
Location: Waukegan,
Elevation: 728 ft
Nearby Weather Stations

Elev 728 ft 42.42 °N, 87.87 °W | Updated 54 minutes ago

Clear
Clear
39 °F
Feels Like 35 °F
N
6
Wind Variable Wind from South

Today
High -- | Low -- °F
--% Chance of Precip.
Yesterday
High -- | Low -- °F
Precip. -- in
7:13 AM 5:57 PM
Waning Crescent, 0% visible
Pressure 30.24 in
Visibility 9.0 miles
Clouds Clear
Windchill 35 °F
Dew Point 36 °F
Humidity 89%
Rainfall 0.00 in
Snow Depth Not available.
UV 0 out of 12
Pollen .30 out of 12
Ozone Good
PM2.5 Moderate
Flu Activity No Activity
METAR KUGN 230855Z AUTO 17005KT 9SM CLR 04/02 A3022 RMK AO2 SLP238 T00390022 56009

More Conditions Fewer Conditions

Pressure 30.24 in
Visibility 9.0 miles
Clouds Clear
Windchill 35 °F
Dew Point 36 °F
Humidity 89%
Rainfall 0.00 in
Snow Depth Not available.
UV 0 out of 12
Pollen .30 out of 12
Ozone Good
PM2.5 Moderate
Flu Activity No Activity
METAR KUGN 230855Z AUTO 17005KT 9SM CLR 04/02 A3022 RMK AO2 SLP238 T00390022 56009

More Conditions Fewer Conditions

10-Day Weather Forecast

Almanac

Astronomy

Oct. 23, 2014 Rise Set
Actual Time 7:13 AM CDT 5:57 PM CDT
Civil Twilight 6:45 AM CDT 6:25 PM CDT
Nautical Twilight 6:12 AM CDT 6:58 PM CDT
Astronomical Twilight 5:39 AM CDT 7:30 PM CDT
Moon 6:52 AM CDT 5:58 PM CDT
Length of Visible Light 11h 40m
Length of Day
10h 43m
Tomorrow will be 2m 39s shorter.
Waning Crescent, 0% of the Moon is Illuminated
Today
Waning Crescent
Oct 23
New
Oct 30
First Quarter
Nov 6
Full
Nov 14
Last Quarter

Today's Extremes

State Highs State Lows

Community

WunderPhotos

Upload Photos

1,764,199 photos uploaded!

Nearby

Air Quality

  Air Quality AQ Index Pollutant
Yesterday Good
PM2.5
Yesterday Good
OZONE
Current Moderate
PM2.5
Current Good
OZONE
Thursday Moderate
PM2.5
Friday Good
PM2.5
Saturday Moderate
PM2.5
Sunday Moderate
PM2.5

Snow Depth

Station Depth Elevation
No new snow has been reported.

Earthquake Activity

City Distance Mag. Time & Date
No recent earthquake activity has been reported nearby.
Minimum magnitude displayed is 2.5.

Coastal Water Temperatures

Place Temperature
No Stations Reporting

Nearby Weather Stations